sensor_id;sensor_type;location;lat;lon;timestamp;P1;durP1;ratioP1;P2;durP2;ratioP2
39370;SDS011;25099;51.946;4.838;2023-08-24T00:00:36;4.53;;;3.35;;
39370;SDS011;25099;51.946;4.838;2023-08-24T00:03:27;7.07;;;3.65;;
39370;SDS011;25099;51.946;4.838;2023-08-24T00:05:52;7.55;;;3.92;;
39370;SDS011;25099;51.946;4.838;2023-08-24T00:08:18;4.07;;;3.45;;
39370;SDS011;25099;51.946;4.838;2023-08-24T00:10:53;4.60;;;4.00;;
39370;SDS011;25099;51.946;4.838;2023-08-24T00:13:32;4.30;;;3.88;;
39370;SDS011;25099;51.946;4.838;2023-08-24T00:16:10;5.60;;;3.80;;
39370;SDS011;25099;51.946;4.838;2023-08-24T00:18:38;7.65;;;3.97;;
39370;SDS011;25099;51.946;4.838;2023-08-24T00:21:22;5.45;;;3.85;;
39370;SDS011;25099;51.946;4.838;2023-08-24T00:26:29;6.05;;;4.28;;
39370;SDS011;25099;51.946;4.838;2023-08-24T00:29:10;6.60;;;4.05;;
39370;SDS011;25099;51.946;4.838;2023-08-24T00:31:36;3.58;;;3.28;;
39370;SDS011;25099;51.946;4.838;2023-08-24T00:34:01;4.80;;;3.47;;
39370;SDS011;25099;51.946;4.838;2023-08-24T00:36:38;4.82;;;4.05;;
39370;SDS011;25099;51.946;4.838;2023-08-24T00:39:05;6.95;;;4.07;;
39370;SDS011;25099;51.946;4.838;2023-08-24T00:41:40;4.82;;;3.88;;
39370;SDS011;25099;51.946;4.838;2023-08-24T00:44:06;5.53;;;4.07;;
39370;SDS011;25099;51.946;4.838;2023-08-24T00:46:47;5.85;;;4.32;;
39370;SDS011;25099;51.946;4.838;2023-08-24T00:49:13;7.55;;;4.05;;
39370;SDS011;25099;51.946;4.838;2023-08-24T00:54:30;12.90;;;4.88;;
39370;SDS011;25099;51.946;4.838;2023-08-24T00:59:54;9.18;;;4.88;;
39370;SDS011;25099;51.946;4.838;2023-08-24T01:02:21;6.03;;;4.78;;
39370;SDS011;25099;51.946;4.838;2023-08-24T01:05:02;5.47;;;4.50;;
39370;SDS011;25099;51.946;4.838;2023-08-24T01:10:30;7.28;;;5.20;;
39370;SDS011;25099;51.946;4.838;2023-08-24T01:16:45;5.97;;;4.90;;
39370;SDS011;25099;51.946;4.838;2023-08-24T01:29:46;5.15;;;4.75;;
39370;SDS011;25099;51.946;4.838;2023-08-24T01:32:21;6.28;;;4.85;;
39370;SDS011;25099;51.946;4.838;2023-08-24T01:34:47;6.22;;;4.90;;
39370;SDS011;25099;51.946;4.838;2023-08-24T01:37:22;6.13;;;5.28;;
39370;SDS011;25099;51.946;4.838;2023-08-24T01:39:50;8.02;;;5.05;;
39370;SDS011;25099;51.946;4.838;2023-08-24T01:43:20;8.55;;;6.30;;
39370;SDS011;25099;51.946;4.838;2023-08-24T01:45:35;7.60;;;5.32;;
39370;SDS011;25099;51.946;4.838;2023-08-24T01:48:19;8.23;;;5.18;;
39370;SDS011;25099;51.946;4.838;2023-08-24T01:50:46;9.10;;;6.25;;
39370;SDS011;25099;51.946;4.838;2023-08-24T01:53:34;6.07;;;5.45;;
39370;SDS011;25099;51.946;4.838;2023-08-24T01:56:00;13.57;;;6.05;;
39370;SDS011;25099;51.946;4.838;2023-08-24T01:58:43;6.18;;;5.57;;
39370;SDS011;25099;51.946;4.838;2023-08-24T02:01:09;7.60;;;5.43;;
39370;SDS011;25099;51.946;4.838;2023-08-24T02:03:35;7.05;;;5.75;;
39370;SDS011;25099;51.946;4.838;2023-08-24T02:06:04;7.32;;;5.80;;
39370;SDS011;25099;51.946;4.838;2023-08-24T02:11:15;10.73;;;6.60;;
39370;SDS011;25099;51.946;4.838;2023-08-24T02:16:48;12.15;;;6.70;;
39370;SDS011;25099;51.946;4.838;2023-08-24T02:19:29;6.43;;;5.60;;
39370;SDS011;25099;51.946;4.838;2023-08-24T02:21:54;10.77;;;7.20;;
39370;SDS011;25099;51.946;4.838;2023-08-24T02:24:20;7.18;;;6.25;;
39370;SDS011;25099;51.946;4.838;2023-08-24T02:26:45;7.20;;;6.50;;
39370;SDS011;25099;51.946;4.838;2023-08-24T02:29:23;7.65;;;6.88;;
39370;SDS011;25099;51.946;4.838;2023-08-24T02:32:01;10.30;;;7.78;;
39370;SDS011;25099;51.946;4.838;2023-08-24T02:34:39;8.45;;;7.25;;
39370;SDS011;25099;51.946;4.838;2023-08-24T02:37:23;9.88;;;7.13;;
39370;SDS011;25099;51.946;4.838;2023-08-24T02:40:00;11.32;;;7.40;;
39370;SDS011;25099;51.946;4.838;2023-08-24T02:42:39;9.02;;;8.07;;
39370;SDS011;25099;51.946;4.838;2023-08-24T02:45:25;8.95;;;7.18;;
39370;SDS011;25099;51.946;4.838;2023-08-24T02:48:11;9.20;;;8.35;;
39370;SDS011;25099;51.946;4.838;2023-08-24T02:50:37;12.80;;;8.02;;
39370;SDS011;25099;51.946;4.838;2023-08-24T02:53:03;8.23;;;7.20;;
39370;SDS011;25099;51.946;4.838;2023-08-24T02:55:43;8.20;;;7.38;;
39370;SDS011;25099;51.946;4.838;2023-08-24T02:58:09;7.25;;;6.60;;
39370;SDS011;25099;51.946;4.838;2023-08-24T03:00:37;16.83;;;7.60;;
39370;SDS011;25099;51.946;4.838;2023-08-24T03:03:19;11.52;;;7.60;;
39370;SDS011;25099;51.946;4.838;2023-08-24T03:05:54;12.23;;;7.97;;
39370;SDS011;25099;51.946;4.838;2023-08-24T03:08:24;10.70;;;7.72;;
39370;SDS011;25099;51.946;4.838;2023-08-24T03:11:08;7.80;;;7.05;;
39370;SDS011;25099;51.946;4.838;2023-08-24T03:13:35;9.85;;;7.53;;
39370;SDS011;25099;51.946;4.838;2023-08-24T03:16:20;8.65;;;7.63;;
39370;SDS011;25099;51.946;4.838;2023-08-24T03:18:45;8.02;;;7.32;;
39370;SDS011;25099;51.946;4.838;2023-08-24T03:21:29;8.20;;;7.15;;
39370;SDS011;25099;51.946;4.838;2023-08-24T03:23:55;7.57;;;6.85;;
39370;SDS011;25099;51.946;4.838;2023-08-24T03:26:21;9.52;;;7.43;;
39370;SDS011;25099;51.946;4.838;2023-08-24T03:29:08;9.10;;;7.20;;
39370;SDS011;25099;51.946;4.838;2023-08-24T03:31:52;9.38;;;8.05;;
39370;SDS011;25099;51.946;4.838;2023-08-24T03:34:18;10.73;;;7.15;;
39370;SDS011;25099;51.946;4.838;2023-08-24T03:39:32;9.00;;;8.07;;
39370;SDS011;25099;51.946;4.838;2023-08-24T03:42:10;8.05;;;7.25;;
39370;SDS011;25099;51.946;4.838;2023-08-24T03:44:35;9.10;;;7.22;;
39370;SDS011;25099;51.946;4.838;2023-08-24T03:47:16;17.33;;;7.90;;
39370;SDS011;25099;51.946;4.838;2023-08-24T03:52:08;9.43;;;8.55;;
39370;SDS011;25099;51.946;4.838;2023-08-24T03:54:56;10.30;;;7.82;;
39370;SDS011;25099;51.946;4.838;2023-08-24T03:57:38;11.25;;;7.82;;
39370;SDS011;25099;51.946;4.838;2023-08-24T04:02:48;11.52;;;8.38;;
39370;SDS011;25099;51.946;4.838;2023-08-24T04:05:29;13.10;;;8.48;;
39370;SDS011;25099;51.946;4.838;2023-08-24T04:10:42;8.77;;;7.90;;
39370;SDS011;25099;51.946;4.838;2023-08-24T04:13:15;9.95;;;7.35;;
39370;SDS011;25099;51.946;4.838;2023-08-24T04:15:43;10.98;;;8.25;;
39370;SDS011;25099;51.946;4.838;2023-08-24T04:18:15;9.38;;;8.45;;
39370;SDS011;25099;51.946;4.838;2023-08-24T04:20:40;7.93;;;7.13;;
39370;SDS011;25099;51.946;4.838;2023-08-24T04:23:25;11.35;;;8.40;;
39370;SDS011;25099;51.946;4.838;2023-08-24T04:28:29;15.93;;;9.02;;
39370;SDS011;25099;51.946;4.838;2023-08-24T04:33:30;11.43;;;9.30;;
39370;SDS011;25099;51.946;4.838;2023-08-24T04:36:13;10.15;;;9.00;;
39370;SDS011;25099;51.946;4.838;2023-08-24T04:38:39;8.93;;;7.93;;
39370;SDS011;25099;51.946;4.838;2023-08-24T04:41:23;12.88;;;8.57;;
39370;SDS011;25099;51.946;4.838;2023-08-24T04:43:48;9.48;;;8.30;;
39370;SDS011;25099;51.946;4.838;2023-08-24T04:46:14;11.48;;;8.57;;
39370;SDS011;25099;51.946;4.838;2023-08-24T04:51:25;10.70;;;9.10;;
39370;SDS011;25099;51.946;4.838;2023-08-24T04:54:03;10.63;;;8.73;;
39370;SDS011;25099;51.946;4.838;2023-08-24T04:56:28;10.23;;;8.77;;
39370;SDS011;25099;51.946;4.838;2023-08-24T04:59:06;9.93;;;8.77;;
39370;SDS011;25099;51.946;4.838;2023-08-24T05:01:33;10.32;;;9.23;;
39370;SDS011;25099;51.946;4.838;2023-08-24T05:04:02;10.65;;;9.60;;
39370;SDS011;25099;51.946;4.838;2023-08-24T05:06:40;12.27;;;9.97;;
39370;SDS011;25099;51.946;4.838;2023-08-24T05:12:14;14.18;;;9.77;;
39370;SDS011;25099;51.946;4.838;2023-08-24T05:14:58;14.63;;;10.07;;
39370;SDS011;25099;51.946;4.838;2023-08-24T05:17:26;15.27;;;10.50;;
39370;SDS011;25099;51.946;4.838;2023-08-24T05:22:40;15.73;;;10.32;;
39370;SDS011;25099;51.946;4.838;2023-08-24T05:25:06;14.68;;;10.88;;
39370;SDS011;25099;51.946;4.838;2023-08-24T05:27:32;12.60;;;10.63;;
39370;SDS011;25099;51.946;4.838;2023-08-24T05:30:16;13.95;;;10.60;;
39370;SDS011;25099;51.946;4.838;2023-08-24T05:35:32;12.25;;;10.50;;
39370;SDS011;25099;51.946;4.838;2023-08-24T05:41:13;12.60;;;11.40;;
39370;SDS011;25099;51.946;4.838;2023-08-24T05:47:21;14.45;;;12.23;;
39370;SDS011;25099;51.946;4.838;2023-08-24T05:50:04;13.07;;;11.38;;
39370;SDS011;25099;51.946;4.838;2023-08-24T05:52:37;17.70;;;12.80;;
39370;SDS011;25099;51.946;4.838;2023-08-24T05:58:01;15.88;;;12.18;;
39370;SDS011;25099;51.946;4.838;2023-08-24T06:00:39;18.00;;;12.40;;
39370;SDS011;25099;51.946;4.838;2023-08-24T06:03:19;16.17;;;12.23;;
39370;SDS011;25099;51.946;4.838;2023-08-24T06:08:13;13.95;;;11.98;;
39370;SDS011;25099;51.946;4.838;2023-08-24T06:10:48;17.25;;;12.85;;
39370;SDS011;25099;51.946;4.838;2023-08-24T06:13:14;18.17;;;12.43;;
39370;SDS011;25099;51.946;4.838;2023-08-24T06:15:39;14.35;;;12.85;;
39370;SDS011;25099;51.946;4.838;2023-08-24T06:18:25;16.88;;;12.73;;
39370;SDS011;25099;51.946;4.838;2023-08-24T06:20:51;15.77;;;13.95;;
39370;SDS011;25099;51.946;4.838;2023-08-24T06:23:35;21.33;;;13.13;;
39370;SDS011;25099;51.946;4.838;2023-08-24T06:26:01;17.55;;;13.25;;
39370;SDS011;25099;51.946;4.838;2023-08-24T06:28:27;16.42;;;14.13;;
39370;SDS011;25099;51.946;4.838;2023-08-24T06:30:54;16.50;;;13.60;;
39370;SDS011;25099;51.946;4.838;2023-08-24T06:33:54;17.80;;;14.07;;
39370;SDS011;25099;51.946;4.838;2023-08-24T06:36:20;16.80;;;13.43;;
39370;SDS011;25099;51.946;4.838;2023-08-24T06:39:06;18.25;;;14.25;;
39370;SDS011;25099;51.946;4.838;2023-08-24T06:41:45;21.60;;;14.73;;
39370;SDS011;25099;51.946;4.838;2023-08-24T06:44:35;17.38;;;14.52;;
39370;SDS011;25099;51.946;4.838;2023-08-24T06:47:01;25.13;;;13.52;;
39370;SDS011;25099;51.946;4.838;2023-08-24T06:49:37;16.02;;;13.45;;
39370;SDS011;25099;51.946;4.838;2023-08-24T06:52:15;16.55;;;13.88;;
39370;SDS011;25099;51.946;4.838;2023-08-24T07:06:06;19.50;;;13.00;;
39370;SDS011;25099;51.946;4.838;2023-08-24T07:14:06;15.70;;;13.43;;
39370;SDS011;25099;51.946;4.838;2023-08-24T07:16:35;21.83;;;13.95;;
39370;SDS011;25099;51.946;4.838;2023-08-24T07:25:07;22.30;;;13.93;;
39370;SDS011;25099;51.946;4.838;2023-08-24T07:27:54;16.80;;;14.50;;
39370;SDS011;25099;51.946;4.838;2023-08-24T07:30:23;20.30;;;14.43;;
39370;SDS011;25099;51.946;4.838;2023-08-24T07:32:52;15.88;;;13.93;;
39370;SDS011;25099;51.946;4.838;2023-08-24T07:35:19;17.98;;;13.52;;
39370;SDS011;25099;51.946;4.838;2023-08-24T07:37:45;17.63;;;13.73;;
39370;SDS011;25099;51.946;4.838;2023-08-24T07:40:14;21.13;;;14.35;;
39370;SDS011;25099;51.946;4.838;2023-08-24T07:42:53;16.27;;;13.23;;
39370;SDS011;25099;51.946;4.838;2023-08-24T07:48:12;14.18;;;12.77;;
39370;SDS011;25099;51.946;4.838;2023-08-24T07:50:56;19.98;;;14.23;;
39370;SDS011;25099;51.946;4.838;2023-08-24T07:53:24;16.23;;;11.60;;
39370;SDS011;25099;51.946;4.838;2023-08-24T07:55:50;19.55;;;13.30;;
39370;SDS011;25099;51.946;4.838;2023-08-24T07:58:15;16.40;;;13.95;;
39370;SDS011;25099;51.946;4.838;2023-08-24T08:16:32;21.27;;;15.52;;
39370;SDS011;25099;51.946;4.838;2023-08-24T08:21:50;19.17;;;14.95;;
39370;SDS011;25099;51.946;4.838;2023-08-24T08:24:31;17.13;;;14.15;;
39370;SDS011;25099;51.946;4.838;2023-08-24T08:26:59;18.58;;;15.75;;
39370;SDS011;25099;51.946;4.838;2023-08-24T08:29:25;18.85;;;14.80;;
39370;SDS011;25099;51.946;4.838;2023-08-24T08:31:50;16.75;;;15.13;;
39370;SDS011;25099;51.946;4.838;2023-08-24T08:34:16;16.90;;;15.07;;
39370;SDS011;25099;51.946;4.838;2023-08-24T08:36:41;18.73;;;16.25;;
39370;SDS011;25099;51.946;4.838;2023-08-24T08:39:07;19.17;;;16.83;;
39370;SDS011;25099;51.946;4.838;2023-08-24T08:41:36;17.08;;;15.40;;
39370;SDS011;25099;51.946;4.838;2023-08-24T08:44:07;21.35;;;15.40;;
39370;SDS011;25099;51.946;4.838;2023-08-24T08:46:40;18.20;;;15.07;;
39370;SDS011;25099;51.946;4.838;2023-08-24T08:49:06;21.45;;;18.25;;
39370;SDS011;25099;51.946;4.838;2023-08-24T08:51:33;22.42;;;16.95;;
39370;SDS011;25099;51.946;4.838;2023-08-24T08:54:01;21.02;;;16.52;;
39370;SDS011;25099;51.946;4.838;2023-08-24T08:56:28;20.10;;;16.50;;
39370;SDS011;25099;51.946;4.838;2023-08-24T08:58:54;18.48;;;16.60;;
39370;SDS011;25099;51.946;4.838;2023-08-24T09:01:21;18.45;;;16.35;;
39370;SDS011;25099;51.946;4.838;2023-08-24T09:03:53;23.25;;;18.50;;
39370;SDS011;25099;51.946;4.838;2023-08-24T09:06:20;19.13;;;17.13;;
39370;SDS011;25099;51.946;4.838;2023-08-24T09:08:46;18.70;;;16.80;;
39370;SDS011;25099;51.946;4.838;2023-08-24T09:11:12;23.98;;;17.33;;
39370;SDS011;25099;51.946;4.838;2023-08-24T09:13:39;22.08;;;17.17;;
39370;SDS011;25099;51.946;4.838;2023-08-24T09:16:05;21.05;;;16.00;;
39370;SDS011;25099;51.946;4.838;2023-08-24T09:18:38;25.13;;;17.10;;
39370;SDS011;25099;51.946;4.838;2023-08-24T09:21:08;20.83;;;17.33;;
39370;SDS011;25099;51.946;4.838;2023-08-24T09:23:34;22.13;;;15.95;;
39370;SDS011;25099;51.946;4.838;2023-08-24T09:26:00;18.85;;;16.48;;
39370;SDS011;25099;51.946;4.838;2023-08-24T09:28:26;22.45;;;16.10;;
39370;SDS011;25099;51.946;4.838;2023-08-24T09:30:54;18.95;;;15.25;;
39370;SDS011;25099;51.946;4.838;2023-08-24T09:33:20;17.70;;;15.00;;
39370;SDS011;25099;51.946;4.838;2023-08-24T09:35:54;18.77;;;15.55;;
39370;SDS011;25099;51.946;4.838;2023-08-24T09:38:26;19.13;;;14.68;;
39370;SDS011;25099;51.946;4.838;2023-08-24T09:40:53;16.92;;;15.00;;
39370;SDS011;25099;51.946;4.838;2023-08-24T09:43:20;19.77;;;15.32;;
39370;SDS011;25099;51.946;4.838;2023-08-24T09:45:53;16.70;;;14.43;;
39370;SDS011;25099;51.946;4.838;2023-08-24T09:48:20;16.88;;;14.30;;
39370;SDS011;25099;51.946;4.838;2023-08-24T09:50:47;18.20;;;14.25;;
39370;SDS011;25099;51.946;4.838;2023-08-24T09:53:16;16.10;;;14.43;;
39370;SDS011;25099;51.946;4.838;2023-08-24T09:55:44;18.55;;;14.27;;
39370;SDS011;25099;51.946;4.838;2023-08-24T09:58:19;15.50;;;13.80;;
39370;SDS011;25099;51.946;4.838;2023-08-24T10:00:45;17.05;;;13.98;;
39370;SDS011;25099;51.946;4.838;2023-08-24T10:03:15;15.63;;;14.02;;
39370;SDS011;25099;51.946;4.838;2023-08-24T10:05:55;16.92;;;14.48;;
39370;SDS011;25099;51.946;4.838;2023-08-24T10:08:46;16.63;;;14.48;;
39370;SDS011;25099;51.946;4.838;2023-08-24T10:11:17;20.00;;;14.57;;
39370;SDS011;25099;51.946;4.838;2023-08-24T10:13:50;16.67;;;13.82;;
39370;SDS011;25099;51.946;4.838;2023-08-24T10:16:29;14.52;;;12.88;;
39370;SDS011;25099;51.946;4.838;2023-08-24T10:18:55;16.25;;;14.27;;
39370;SDS011;25099;51.946;4.838;2023-08-24T10:21:23;16.80;;;14.23;;
39370;SDS011;25099;51.946;4.838;2023-08-24T10:23:53;18.02;;;14.80;;
39370;SDS011;25099;51.946;4.838;2023-08-24T10:26:21;18.00;;;15.30;;
39370;SDS011;25099;51.946;4.838;2023-08-24T10:28:51;19.88;;;16.40;;
39370;SDS011;25099;51.946;4.838;2023-08-24T10:31:18;24.92;;;17.98;;
39370;SDS011;25099;51.946;4.838;2023-08-24T10:33:45;21.15;;;18.02;;
39370;SDS011;25099;51.946;4.838;2023-08-24T10:36:13;23.48;;;17.75;;
39370;SDS011;25099;51.946;4.838;2023-08-24T10:38:40;23.77;;;18.52;;
39370;SDS011;25099;51.946;4.838;2023-08-24T10:41:09;21.90;;;19.10;;
39370;SDS011;25099;51.946;4.838;2023-08-24T10:44:03;21.90;;;19.57;;
39370;SDS011;25099;51.946;4.838;2023-08-24T10:46:38;24.92;;;18.45;;
39370;SDS011;25099;51.946;4.838;2023-08-24T10:49:04;21.25;;;19.02;;
39370;SDS011;25099;51.946;4.838;2023-08-24T10:51:30;23.58;;;20.95;;
39370;SDS011;25099;51.946;4.838;2023-08-24T10:54:09;22.90;;;19.35;;
39370;SDS011;25099;51.946;4.838;2023-08-24T10:56:36;22.33;;;19.00;;
39370;SDS011;25099;51.946;4.838;2023-08-24T11:01:59;22.75;;;19.25;;
39370;SDS011;25099;51.946;4.838;2023-08-24T11:04:29;21.02;;;18.88;;
39370;SDS011;25099;51.946;4.838;2023-08-24T11:06:58;21.30;;;19.00;;
39370;SDS011;25099;51.946;4.838;2023-08-24T11:09:45;21.55;;;18.77;;
39370;SDS011;25099;51.946;4.838;2023-08-24T11:12:12;27.10;;;19.80;;
39370;SDS011;25099;51.946;4.838;2023-08-24T11:14:48;21.38;;;19.17;;
39370;SDS011;25099;51.946;4.838;2023-08-24T11:17:29;25.55;;;18.77;;
39370;SDS011;25099;51.946;4.838;2023-08-24T11:19:58;29.42;;;20.88;;
39370;SDS011;25099;51.946;4.838;2023-08-24T11:22:40;21.92;;;19.60;;
39370;SDS011;25099;51.946;4.838;2023-08-24T11:25:06;25.27;;;19.63;;
39370;SDS011;25099;51.946;4.838;2023-08-24T11:27:59;24.95;;;19.85;;
39370;SDS011;25099;51.946;4.838;2023-08-24T11:30:25;23.17;;;19.75;;
39370;SDS011;25099;51.946;4.838;2023-08-24T11:32:53;21.33;;;17.85;;
39370;SDS011;25099;51.946;4.838;2023-08-24T11:35:19;21.52;;;18.90;;
39370;SDS011;25099;51.946;4.838;2023-08-24T11:37:59;34.90;;;19.45;;
39370;SDS011;25099;51.946;4.838;2023-08-24T11:40:24;24.40;;;18.55;;
39370;SDS011;25099;51.946;4.838;2023-08-24T11:42:57;21.20;;;16.75;;
39370;SDS011;25099;51.946;4.838;2023-08-24T11:45:33;18.63;;;16.00;;
39370;SDS011;25099;51.946;4.838;2023-08-24T11:48:01;22.02;;;15.95;;
39370;SDS011;25099;51.946;4.838;2023-08-24T11:50:44;18.77;;;16.70;;
39370;SDS011;25099;51.946;4.838;2023-08-24T11:53:10;23.40;;;16.60;;
39370;SDS011;25099;51.946;4.838;2023-08-24T11:55:39;19.17;;;16.10;;
39370;SDS011;25099;51.946;4.838;2023-08-24T11:58:23;21.35;;;17.60;;
39370;SDS011;25099;51.946;4.838;2023-08-24T12:00:48;20.85;;;16.27;;
39370;SDS011;25099;51.946;4.838;2023-08-24T12:03:14;31.33;;;15.93;;
39370;SDS011;25099;51.946;4.838;2023-08-24T12:06:02;17.30;;;14.38;;
39370;SDS011;25099;51.946;4.838;2023-08-24T12:08:36;19.13;;;16.73;;
39370;SDS011;25099;51.946;4.838;2023-08-24T12:11:18;19.10;;;15.30;;
39370;SDS011;25099;51.946;4.838;2023-08-24T12:13:46;17.33;;;15.45;;
39370;SDS011;25099;51.946;4.838;2023-08-24T12:16:13;16.13;;;14.43;;
39370;SDS011;25099;51.946;4.838;2023-08-24T12:18:54;17.60;;;15.82;;
39370;SDS011;25099;51.946;4.838;2023-08-24T12:21:21;22.48;;;16.23;;
39370;SDS011;25099;51.946;4.838;2023-08-24T12:23:57;19.88;;;17.40;;
39370;SDS011;25099;51.946;4.838;2023-08-24T12:26:30;20.38;;;17.10;;
39370;SDS011;25099;51.946;4.838;2023-08-24T12:29:12;19.90;;;16.48;;
39370;SDS011;25099;51.946;4.838;2023-08-24T12:31:41;20.58;;;18.48;;
39370;SDS011;25099;51.946;4.838;2023-08-24T12:34:17;19.65;;;17.65;;
39370;SDS011;25099;51.946;4.838;2023-08-24T12:36:43;21.00;;;17.85;;
39370;SDS011;25099;51.946;4.838;2023-08-24T12:39:10;19.70;;;17.67;;
39370;SDS011;25099;51.946;4.838;2023-08-24T12:41:58;17.65;;;15.60;;
39370;SDS011;25099;51.946;4.838;2023-08-24T12:44:25;20.85;;;17.48;;
39370;SDS011;25099;51.946;4.838;2023-08-24T12:46:51;22.73;;;17.42;;
39370;SDS011;25099;51.946;4.838;2023-08-24T12:49:35;19.60;;;16.65;;
39370;SDS011;25099;51.946;4.838;2023-08-24T12:52:01;18.05;;;15.18;;
39370;SDS011;25099;51.946;4.838;2023-08-24T12:54:28;17.23;;;14.50;;
39370;SDS011;25099;51.946;4.838;2023-08-24T12:57:00;17.80;;;15.90;;
39370;SDS011;25099;51.946;4.838;2023-08-24T12:59:25;22.30;;;16.13;;
39370;SDS011;25099;51.946;4.838;2023-08-24T13:01:51;21.13;;;16.88;;
39370;SDS011;25099;51.946;4.838;2023-08-24T13:04:17;18.80;;;15.50;;
39370;SDS011;25099;51.946;4.838;2023-08-24T13:06:42;18.98;;;17.02;;
39370;SDS011;25099;51.946;4.838;2023-08-24T13:09:11;20.73;;;16.55;;
39370;SDS011;25099;51.946;4.838;2023-08-24T13:11:51;18.50;;;15.60;;
39370;SDS011;25099;51.946;4.838;2023-08-24T13:14:28;18.30;;;16.42;;
39370;SDS011;25099;51.946;4.838;2023-08-24T13:16:54;18.88;;;15.73;;
39370;SDS011;25099;51.946;4.838;2023-08-24T13:19:20;19.80;;;17.63;;
39370;SDS011;25099;51.946;4.838;2023-08-24T13:21:45;19.40;;;17.30;;
39370;SDS011;25099;51.946;4.838;2023-08-24T13:24:11;24.48;;;16.88;;
39370;SDS011;25099;51.946;4.838;2023-08-24T13:26:37;17.35;;;14.50;;
39370;SDS011;25099;51.946;4.838;2023-08-24T13:29:02;17.73;;;15.93;;
39370;SDS011;25099;51.946;4.838;2023-08-24T13:31:29;18.98;;;14.90;;
39370;SDS011;25099;51.946;4.838;2023-08-24T13:33:55;17.40;;;14.77;;
39370;SDS011;25099;51.946;4.838;2023-08-24T13:36:20;18.90;;;15.02;;
39370;SDS011;25099;51.946;4.838;2023-08-24T13:38:55;16.15;;;14.45;;
39370;SDS011;25099;51.946;4.838;2023-08-24T13:41:20;18.63;;;15.90;;
39370;SDS011;25099;51.946;4.838;2023-08-24T13:43:46;17.63;;;15.68;;
39370;SDS011;25099;51.946;4.838;2023-08-24T13:46:30;20.00;;;16.10;;
39370;SDS011;25099;51.946;4.838;2023-08-24T13:48:56;19.83;;;17.23;;
39370;SDS011;25099;51.946;4.838;2023-08-24T13:51:21;22.48;;;14.93;;
39370;SDS011;25099;51.946;4.838;2023-08-24T13:53:47;16.25;;;14.10;;
39370;SDS011;25099;51.946;4.838;2023-08-24T13:56:12;17.00;;;13.10;;
39370;SDS011;25099;51.946;4.838;2023-08-24T13:58:38;15.77;;;14.15;;
39370;SDS011;25099;51.946;4.838;2023-08-24T14:01:03;16.98;;;14.85;;
39370;SDS011;25099;51.946;4.838;2023-08-24T14:03:44;16.92;;;13.55;;
39370;SDS011;25099;51.946;4.838;2023-08-24T14:06:13;15.43;;;13.70;;
39370;SDS011;25099;51.946;4.838;2023-08-24T14:08:42;18.10;;;16.25;;
39370;SDS011;25099;51.946;4.838;2023-08-24T14:11:07;18.13;;;14.55;;
39370;SDS011;25099;51.946;4.838;2023-08-24T14:13:33;16.00;;;13.90;;
39370;SDS011;25099;51.946;4.838;2023-08-24T14:15:59;17.75;;;14.95;;
39370;SDS011;25099;51.946;4.838;2023-08-24T14:18:40;22.25;;;15.18;;
39370;SDS011;25099;51.946;4.838;2023-08-24T14:21:05;16.95;;;14.65;;
39370;SDS011;25099;51.946;4.838;2023-08-24T14:23:31;19.42;;;14.90;;
39370;SDS011;25099;51.946;4.838;2023-08-24T14:25:56;23.02;;;15.57;;
39370;SDS011;25099;51.946;4.838;2023-08-24T14:31:14;16.33;;;13.30;;
39370;SDS011;25099;51.946;4.838;2023-08-24T14:33:59;21.90;;;13.93;;
39370;SDS011;25099;51.946;4.838;2023-08-24T14:36:26;18.10;;;13.35;;
39370;SDS011;25099;51.946;4.838;2023-08-24T14:38:53;19.10;;;14.50;;
39370;SDS011;25099;51.946;4.838;2023-08-24T14:44:03;16.63;;;11.70;;
39370;SDS011;25099;51.946;4.838;2023-08-24T14:46:29;13.48;;;12.27;;
39370;SDS011;25099;51.946;4.838;2023-08-24T14:48:54;14.88;;;12.63;;
39370;SDS011;25099;51.946;4.838;2023-08-24T14:51:22;12.85;;;9.50;;
39370;SDS011;25099;51.946;4.838;2023-08-24T14:54:03;12.57;;;9.07;;
39370;SDS011;25099;51.946;4.838;2023-08-24T14:56:29;10.50;;;8.65;;
39370;SDS011;25099;51.946;4.838;2023-08-24T14:58:54;13.05;;;8.38;;
39370;SDS011;25099;51.946;4.838;2023-08-24T15:01:20;12.70;;;8.15;;
39370;SDS011;25099;51.946;4.838;2023-08-24T15:03:47;8.57;;;7.50;;
39370;SDS011;25099;51.946;4.838;2023-08-24T15:06:13;12.82;;;7.25;;
39370;SDS011;25099;51.946;4.838;2023-08-24T15:08:39;10.25;;;7.53;;
39370;SDS011;25099;51.946;4.838;2023-08-24T15:11:06;10.23;;;7.63;;
39370;SDS011;25099;51.946;4.838;2023-08-24T15:13:38;11.60;;;7.85;;
39370;SDS011;25099;51.946;4.838;2023-08-24T15:16:13;12.07;;;7.40;;
39370;SDS011;25099;51.946;4.838;2023-08-24T15:18:57;11.07;;;7.43;;
39370;SDS011;25099;51.946;4.838;2023-08-24T15:21:23;12.45;;;8.48;;
39370;SDS011;25099;51.946;4.838;2023-08-24T15:23:59;13.00;;;7.10;;
39370;SDS011;25099;51.946;4.838;2023-08-24T15:31:58;10.60;;;7.13;;
39370;SDS011;25099;51.946;4.838;2023-08-24T15:34:25;11.55;;;5.68;;
39370;SDS011;25099;51.946;4.838;2023-08-24T15:39:37;7.53;;;4.65;;
39370;SDS011;25099;51.946;4.838;2023-08-24T15:42:21;5.93;;;3.63;;
39370;SDS011;25099;51.946;4.838;2023-08-24T15:44:47;10.02;;;4.00;;
39370;SDS011;25099;51.946;4.838;2023-08-24T15:50:00;7.68;;;4.40;;
39370;SDS011;25099;51.946;4.838;2023-08-24T15:52:35;8.63;;;4.30;;
39370;SDS011;25099;51.946;4.838;2023-08-24T15:55:01;7.07;;;3.67;;
39370;SDS011;25099;51.946;4.838;2023-08-24T15:57:28;5.78;;;4.53;;
39370;SDS011;25099;51.946;4.838;2023-08-24T15:59:53;4.90;;;3.85;;
39370;SDS011;25099;51.946;4.838;2023-08-24T16:02:28;4.47;;;3.65;;
39370;SDS011;25099;51.946;4.838;2023-08-24T16:04:54;8.52;;;3.65;;
39370;SDS011;25099;51.946;4.838;2023-08-24T16:07:20;5.93;;;3.50;;
39370;SDS011;25099;51.946;4.838;2023-08-24T16:09:46;9.73;;;4.30;;
39370;SDS011;25099;51.946;4.838;2023-08-24T16:12:12;7.65;;;3.80;;
39370;SDS011;25099;51.946;4.838;2023-08-24T16:14:39;4.40;;;3.97;;
39370;SDS011;25099;51.946;4.838;2023-08-24T16:17:04;9.50;;;4.15;;
39370;SDS011;25099;51.946;4.838;2023-08-24T16:19:33;5.20;;;4.20;;
39370;SDS011;25099;51.946;4.838;2023-08-24T16:21:58;5.65;;;4.10;;
39370;SDS011;25099;51.946;4.838;2023-08-24T16:24:25;4.38;;;3.58;;
39370;SDS011;25099;51.946;4.838;2023-08-24T16:26:51;5.47;;;4.10;;
39370;SDS011;25099;51.946;4.838;2023-08-24T16:29:16;4.07;;;3.75;;
39370;SDS011;25099;51.946;4.838;2023-08-24T16:31:42;10.13;;;4.03;;
39370;SDS011;25099;51.946;4.838;2023-08-24T16:34:07;5.47;;;4.07;;
39370;SDS011;25099;51.946;4.838;2023-08-24T16:36:33;7.68;;;4.95;;
39370;SDS011;25099;51.946;4.838;2023-08-24T16:39:03;9.38;;;3.78;;
39370;SDS011;25099;51.946;4.838;2023-08-24T16:41:34;4.53;;;3.83;;
39370;SDS011;25099;51.946;4.838;2023-08-24T16:44:04;4.25;;;3.60;;
39370;SDS011;25099;51.946;4.838;2023-08-24T16:49:10;4.68;;;3.72;;
39370;SDS011;25099;51.946;4.838;2023-08-24T16:51:36;11.05;;;4.22;;
39370;SDS011;25099;51.946;4.838;2023-08-24T16:54:01;3.58;;;3.30;;
39370;SDS011;25099;51.946;4.838;2023-08-24T16:56:30;3.70;;;3.40;;
39370;SDS011;25099;51.946;4.838;2023-08-24T16:58:56;7.07;;;4.22;;
39370;SDS011;25099;51.946;4.838;2023-08-24T17:01:21;6.13;;;4.00;;
39370;SDS011;25099;51.946;4.838;2023-08-24T17:03:47;5.85;;;4.00;;
39370;SDS011;25099;51.946;4.838;2023-08-24T17:06:12;4.47;;;3.60;;
39370;SDS011;25099;51.946;4.838;2023-08-24T17:08:38;7.25;;;4.47;;
39370;SDS011;25099;51.946;4.838;2023-08-24T17:11:04;3.85;;;3.13;;